Greene, IA (50636)

9:01 PM CDT on September 19, 2014 (GMT -0500)
Charles City Municipal | Change Station
CLOSE
Current Station
Airport
Location: Charles City,
Elevation: 1125 ft
Nearby Weather Stations

Elev 1125 ft 43.07 °N, 92.61 °W | Updated 26 minutes ago

Clear
Clear
68 °F
Feels Like 68 °F
N
12
Wind Variable Wind from South

Today
High -- | Low -- °F
--% Chance of Precip.
Yesterday
High -- | Low -- °F
Precip. -- in
6:55 AM 7:13 PM
Waning Crescent, 15% visible
Pressure 29.82 in
Visibility 10.0 miles
Clouds Clear
Dew Point 61 °F
Humidity 78%
Rainfall 0.00 in
Snow Depth Not available.
UV 0 out of 12
Pollen 5.30 out of 12
Air Quality Not available.
Flu Activity Not available.
METAR KCCY 200135Z AUTO 18010KT 10SM CLR 20/16 A2982 RMK AO2

More Conditions Fewer Conditions

Pressure 29.82 in
Visibility 10.0 miles
Clouds Clear
Dew Point 61 °F
Humidity 78%
Rainfall 0.00 in
Snow Depth Not available.
UV 0 out of 12
Pollen 5.30 out of 12
Air Quality Not available.
Flu Activity Not available.
METAR KCCY 200135Z AUTO 18010KT 10SM CLR 20/16 A2982 RMK AO2

More Conditions Fewer Conditions

10-Day Weather Forecast

Almanac

Astronomy

Sep. 19, 2014 Rise Set
Actual Time 6:55 AM CDT 7:13 PM CDT
Civil Twilight 6:26 AM CDT 7:42 PM CDT
Nautical Twilight 5:53 AM CDT 8:15 PM CDT
Astronomical Twilight 5:19 AM CDT 8:49 PM CDT
Moon 2:36 AM CDT (9/19) 4:47 PM CDT (9/19)
Length of Visible Light 13h 15m
Length of Day
12h 18m
Tomorrow will be 2m 54s shorter.
Waning Crescent, 15% of the Moon is Illuminated
Today
Waning Crescent
Sep 24
New
Oct 1
First Quarter
Oct 8
Full
Oct 15
Last Quarter

Today's Extremes

State Highs State Lows

Community

WunderPhotos

Upload Photos

1,754,761 photos uploaded!

WunderBlogs® & News

Nearby

Snow Depth

Station Depth Elevation
No new snow has been reported.

Earthquake Activity

City Distance Mag. Time & Date
No recent earthquake activity has been reported nearby.
Minimum magnitude displayed is 2.5.

Coastal Water Temperatures

Place Temperature
No Stations Reporting

Nearby Weather Stations